sensor_id;sensor_type;location;lat;lon;timestamp;temperature;humidity
30825;DHT22;17550;45.486;12.222;2023-05-31T00:00:03;19.30;95.00
30825;DHT22;17550;45.486;12.222;2023-05-31T00:02:29;19.20;95.10
30825;DHT22;17550;45.486;12.222;2023-05-31T00:04:55;19.20;95.00
30825;DHT22;17550;45.486;12.222;2023-05-31T00:07:20;19.20;95.10
30825;DHT22;17550;45.486;12.222;2023-05-31T00:09:46;19.20;95.10
30825;DHT22;17550;45.486;12.222;2023-05-31T00:12:12;19.10;95.20
30825;DHT22;17550;45.486;12.222;2023-05-31T00:14:37;19.10;95.20
30825;DHT22;17550;45.486;12.222;2023-05-31T00:17:03;19.10;95.20
30825;DHT22;17550;45.486;12.222;2023-05-31T00:19:29;19.10;95.50
30825;DHT22;17550;45.486;12.222;2023-05-31T00:21:55;19.10;95.40
30825;DHT22;17550;45.486;12.222;2023-05-31T00:24:21;19.10;95.40
30825;DHT22;17550;45.486;12.222;2023-05-31T00:26:47;19.10;95.30
30825;DHT22;17550;45.486;12.222;2023-05-31T00:29:12;19.10;95.40
30825;DHT22;17550;45.486;12.222;2023-05-31T00:31:40;19.00;95.50
30825;DHT22;17550;45.486;12.222;2023-05-31T00:34:06;19.00;95.30
30825;DHT22;17550;45.486;12.222;2023-05-31T00:36:32;19.00;95.30
30825;DHT22;17550;45.486;12.222;2023-05-31T00:38:58;19.00;95.40
30825;DHT22;17550;45.486;12.222;2023-05-31T00:41:24;19.00;95.30
30825;DHT22;17550;45.486;12.222;2023-05-31T00:43:51;19.00;95.30
30825;DHT22;17550;45.486;12.222;2023-05-31T00:46:32;19.00;95.20
30825;DHT22;17550;45.486;12.222;2023-05-31T00:48:58;19.10;95.20
30825;DHT22;17550;45.486;12.222;2023-05-31T00:51:27;19.10;95.20
30825;DHT22;17550;45.486;12.222;2023-05-31T00:53:54;19.10;95.10
30825;DHT22;17550;45.486;12.222;2023-05-31T00:56:21;19.10;95.30
30825;DHT22;17550;45.486;12.222;2023-05-31T00:58:48;19.10;95.20
30825;DHT22;17550;45.486;12.222;2023-05-31T01:01:14;19.10;95.10
30825;DHT22;17550;45.486;12.222;2023-05-31T01:03:41;19.00;95.10
30825;DHT22;17550;45.486;12.222;2023-05-31T01:06:07;19.10;95.20
30825;DHT22;17550;45.486;12.222;2023-05-31T01:08:34;19.10;95.10
30825;DHT22;17550;45.486;12.222;2023-05-31T01:11:07;19.10;95.10
30825;DHT22;17550;45.486;12.222;2023-05-31T01:13:50;19.10;95.10
30825;DHT22;17550;45.486;12.222;2023-05-31T01:16:21;19.10;94.90
30825;DHT22;17550;45.486;12.222;2023-05-31T01:18:56;19.10;94.90
30825;DHT22;17550;45.486;12.222;2023-05-31T01:21:32;19.10;94.80
30825;DHT22;17550;45.486;12.222;2023-05-31T01:24:18;19.10;94.70
30825;DHT22;17550;45.486;12.222;2023-05-31T01:26:47;19.10;94.70
30825;DHT22;17550;45.486;12.222;2023-05-31T01:29:20;19.10;94.70
30825;DHT22;17550;45.486;12.222;2023-05-31T01:31:47;19.20;94.70
30825;DHT22;17550;45.486;12.222;2023-05-31T01:34:14;19.20;94.60
30825;DHT22;17550;45.486;12.222;2023-05-31T01:36:39;19.20;94.60
30825;DHT22;17550;45.486;12.222;2023-05-31T01:39:06;19.20;94.80
30825;DHT22;17550;45.486;12.222;2023-05-31T01:41:39;19.10;94.50
30825;DHT22;17550;45.486;12.222;2023-05-31T01:44:06;19.10;94.40
30825;DHT22;17550;45.486;12.222;2023-05-31T01:46:33;19.10;94.20
30825;DHT22;17550;45.486;12.222;2023-05-31T01:48:59;19.10;94.20
30825;DHT22;17550;45.486;12.222;2023-05-31T01:51:27;19.10;94.20
30825;DHT22;17550;45.486;12.222;2023-05-31T01:53:53;19.20;94.20
30825;DHT22;17550;45.486;12.222;2023-05-31T01:56:20;19.10;94.30
30825;DHT22;17550;45.486;12.222;2023-05-31T01:58:46;19.10;94.30
30825;DHT22;17550;45.486;12.222;2023-05-31T02:01:16;19.10;94.30
30825;DHT22;17550;45.486;12.222;2023-05-31T02:03:43;19.10;94.30
30825;DHT22;17550;45.486;12.222;2023-05-31T02:06:08;19.10;94.10
30825;DHT22;17550;45.486;12.222;2023-05-31T02:08:38;19.10;94.10
30825;DHT22;17550;45.486;12.222;2023-05-31T02:11:04;19.10;94.00
30825;DHT22;17550;45.486;12.222;2023-05-31T02:13:30;19.10;94.10
30825;DHT22;17550;45.486;12.222;2023-05-31T02:15:56;19.10;94.00
30825;DHT22;17550;45.486;12.222;2023-05-31T02:18:23;19.10;93.90
30825;DHT22;17550;45.486;12.222;2023-05-31T02:20:52;19.10;93.90
30825;DHT22;17550;45.486;12.222;2023-05-31T02:23:18;19.10;93.70
30825;DHT22;17550;45.486;12.222;2023-05-31T02:25:46;19.10;93.70
30825;DHT22;17550;45.486;12.222;2023-05-31T02:28:12;19.10;93.70
30825;DHT22;17550;45.486;12.222;2023-05-31T02:30:38;19.10;93.80
30825;DHT22;17550;45.486;12.222;2023-05-31T02:33:04;19.10;93.60
30825;DHT22;17550;45.486;12.222;2023-05-31T02:35:30;19.10;93.70
30825;DHT22;17550;45.486;12.222;2023-05-31T02:37:56;19.10;93.60
30825;DHT22;17550;45.486;12.222;2023-05-31T02:40:22;19.10;93.60
30825;DHT22;17550;45.486;12.222;2023-05-31T02:42:47;19.10;93.60
30825;DHT22;17550;45.486;12.222;2023-05-31T02:45:13;19.00;93.60
30825;DHT22;17550;45.486;12.222;2023-05-31T02:47:39;19.00;93.70
30825;DHT22;17550;45.486;12.222;2023-05-31T02:50:06;19.10;93.70
30825;DHT22;17550;45.486;12.222;2023-05-31T02:52:33;19.00;93.70
30825;DHT22;17550;45.486;12.222;2023-05-31T02:54:59;19.00;93.60
30825;DHT22;17550;45.486;12.222;2023-05-31T02:57:25;19.00;93.60
30825;DHT22;17550;45.486;12.222;2023-05-31T02:59:55;19.00;93.70
30825;DHT22;17550;45.486;12.222;2023-05-31T03:02:24;19.00;93.80
30825;DHT22;17550;45.486;12.222;2023-05-31T03:04:50;19.00;93.90
30825;DHT22;17550;45.486;12.222;2023-05-31T03:07:16;18.90;94.00
30825;DHT22;17550;45.486;12.222;2023-05-31T03:09:42;18.90;94.10
30825;DHT22;17550;45.486;12.222;2023-05-31T03:12:08;18.90;94.20
30825;DHT22;17550;45.486;12.222;2023-05-31T03:14:34;18.80;94.30
30825;DHT22;17550;45.486;12.222;2023-05-31T03:17:00;18.80;94.20
30825;DHT22;17550;45.486;12.222;2023-05-31T03:19:26;18.80;94.30
30825;DHT22;17550;45.486;12.222;2023-05-31T03:21:52;18.80;94.30
30825;DHT22;17550;45.486;12.222;2023-05-31T03:24:18;18.80;94.40
30825;DHT22;17550;45.486;12.222;2023-05-31T03:26:43;18.80;94.50
30825;DHT22;17550;45.486;12.222;2023-05-31T03:29:09;18.70;94.50
30825;DHT22;17550;45.486;12.222;2023-05-31T03:31:35;18.80;94.30
30825;DHT22;17550;45.486;12.222;2023-05-31T03:34:01;18.80;94.30
30825;DHT22;17550;45.486;12.222;2023-05-31T03:36:26;18.80;94.20
30825;DHT22;17550;45.486;12.222;2023-05-31T03:38:52;18.80;94.20
30825;DHT22;17550;45.486;12.222;2023-05-31T03:41:18;18.80;94.20
30825;DHT22;17550;45.486;12.222;2023-05-31T03:43:43;18.90;94.10
30825;DHT22;17550;45.486;12.222;2023-05-31T03:46:09;18.90;94.10
30825;DHT22;17550;45.486;12.222;2023-05-31T03:48:35;19.00;94.00
30825;DHT22;17550;45.486;12.222;2023-05-31T03:51:00;19.20;93.80
30825;DHT22;17550;45.486;12.222;2023-05-31T03:53:26;19.30;93.70
30825;DHT22;17550;45.486;12.222;2023-05-31T03:55:52;19.50;93.40
30825;DHT22;17550;45.486;12.222;2023-05-31T03:58:19;19.80;93.20
30825;DHT22;17550;45.486;12.222;2023-05-31T04:00:46;20.20;92.40
30825;DHT22;17550;45.486;12.222;2023-05-31T04:03:12;20.40;92.30
30825;DHT22;17550;45.486;12.222;2023-05-31T04:05:38;20.90;91.80
30825;DHT22;17550;45.486;12.222;2023-05-31T04:08:04;21.30;91.20
30825;DHT22;17550;45.486;12.222;2023-05-31T04:10:30;21.70;90.80
30825;DHT22;17550;45.486;12.222;2023-05-31T04:12:56;22.00;90.10
30825;DHT22;17550;45.486;12.222;2023-05-31T04:15:22;22.20;90.00
30825;DHT22;17550;45.486;12.222;2023-05-31T04:17:48;22.40;89.50
30825;DHT22;17550;45.486;12.222;2023-05-31T04:20:13;22.60;88.30
30825;DHT22;17550;45.486;12.222;2023-05-31T04:22:39;22.00;90.00
30825;DHT22;17550;45.486;12.222;2023-05-31T04:25:05;21.60;90.50
30825;DHT22;17550;45.486;12.222;2023-05-31T04:27:31;21.30;90.90
30825;DHT22;17550;45.486;12.222;2023-05-31T04:29:58;20.80;91.50
30825;DHT22;17550;45.486;12.222;2023-05-31T04:32:26;20.60;91.90
30825;DHT22;17550;45.486;12.222;2023-05-31T04:34:53;20.40;92.30
30825;DHT22;17550;45.486;12.222;2023-05-31T04:37:25;20.30;92.60
30825;DHT22;17550;45.486;12.222;2023-05-31T04:39:53;20.20;92.90
30825;DHT22;17550;45.486;12.222;2023-05-31T04:42:19;20.00;92.80
30825;DHT22;17550;45.486;12.222;2023-05-31T04:44:45;20.10;93.00
30825;DHT22;17550;45.486;12.222;2023-05-31T04:47:11;20.00;93.10
30825;DHT22;17550;45.486;12.222;2023-05-31T04:49:36;19.80;93.40
30825;DHT22;17550;45.486;12.222;2023-05-31T04:52:02;19.70;93.50
30825;DHT22;17550;45.486;12.222;2023-05-31T04:54:28;19.70;93.60
30825;DHT22;17550;45.486;12.222;2023-05-31T04:56:54;19.80;93.70
30825;DHT22;17550;45.486;12.222;2023-05-31T04:59:20;20.20;93.20
30825;DHT22;17550;45.486;12.222;2023-05-31T05:01:46;20.50;92.70
30825;DHT22;17550;45.486;12.222;2023-05-31T05:04:13;20.90;92.30
30825;DHT22;17550;45.486;12.222;2023-05-31T05:06:39;21.10;91.70
30825;DHT22;17550;45.486;12.222;2023-05-31T05:09:06;21.20;91.80
30825;DHT22;17550;45.486;12.222;2023-05-31T05:11:32;21.30;91.80
30825;DHT22;17550;45.486;12.222;2023-05-31T05:13:57;21.70;91.20
30825;DHT22;17550;45.486;12.222;2023-05-31T05:16:23;22.30;90.60
30825;DHT22;17550;45.486;12.222;2023-05-31T05:18:49;23.00;89.70
30825;DHT22;17550;45.486;12.222;2023-05-31T05:21:14;23.30;88.70
30825;DHT22;17550;45.486;12.222;2023-05-31T05:23:40;23.40;88.30
30825;DHT22;17550;45.486;12.222;2023-05-31T05:26:07;23.40;88.00
30825;DHT22;17550;45.486;12.222;2023-05-31T05:28:33;23.20;88.90
30825;DHT22;17550;45.486;12.222;2023-05-31T05:30:59;23.00;89.70
30825;DHT22;17550;45.486;12.222;2023-05-31T05:33:25;22.80;90.00
30825;DHT22;17550;45.486;12.222;2023-05-31T05:35:51;22.70;90.30
30825;DHT22;17550;45.486;12.222;2023-05-31T05:38:17;22.70;90.40
30825;DHT22;17550;45.486;12.222;2023-05-31T05:40:43;22.80;90.50
30825;DHT22;17550;45.486;12.222;2023-05-31T05:43:08;22.70;90.70
30825;DHT22;17550;45.486;12.222;2023-05-31T05:45:34;22.90;90.90
30825;DHT22;17550;45.486;12.222;2023-05-31T05:48:00;23.00;90.70
30825;DHT22;17550;45.486;12.222;2023-05-31T05:50:26;23.20;89.80
30825;DHT22;17550;45.486;12.222;2023-05-31T05:52:51;23.30;90.30
30825;DHT22;17550;45.486;12.222;2023-05-31T05:55:18;23.30;90.00
30825;DHT22;17550;45.486;12.222;2023-05-31T05:57:44;23.30;88.60
30825;DHT22;17550;45.486;12.222;2023-05-31T06:00:10;23.30;89.20
30825;DHT22;17550;45.486;12.222;2023-05-31T06:02:37;23.40;88.30
30825;DHT22;17550;45.486;12.222;2023-05-31T06:05:03;23.40;88.30
30825;DHT22;17550;45.486;12.222;2023-05-31T06:07:30;23.40;88.30
30825;DHT22;17550;45.486;12.222;2023-05-31T06:09:56;23.50;89.00
30825;DHT22;17550;45.486;12.222;2023-05-31T06:12:21;23.60;88.50
30825;DHT22;17550;45.486;12.222;2023-05-31T06:14:47;23.80;89.10
30825;DHT22;17550;45.486;12.222;2023-05-31T06:17:14;24.00;87.20
30825;DHT22;17550;45.486;12.222;2023-05-31T06:19:39;24.10;86.70
30825;DHT22;17550;45.486;12.222;2023-05-31T06:22:06;23.90;85.20
30825;DHT22;17550;45.486;12.222;2023-05-31T06:24:32;23.80;86.20
30825;DHT22;17550;45.486;12.222;2023-05-31T06:26:57;23.90;86.90
30825;DHT22;17550;45.486;12.222;2023-05-31T06:29:23;24.00;85.60
30825;DHT22;17550;45.486;12.222;2023-05-31T06:31:49;24.10;86.50
30825;DHT22;17550;45.486;12.222;2023-05-31T06:34:14;24.00;84.60
30825;DHT22;17550;45.486;12.222;2023-05-31T06:36:41;24.00;85.40
30825;DHT22;17550;45.486;12.222;2023-05-31T06:39:07;24.00;86.40
30825;DHT22;17550;45.486;12.222;2023-05-31T06:41:32;24.10;85.00
30825;DHT22;17550;45.486;12.222;2023-05-31T06:44:00;24.30;85.00
30825;DHT22;17550;45.486;12.222;2023-05-31T06:46:27;24.40;84.80
30825;DHT22;17550;45.486;12.222;2023-05-31T06:48:53;24.50;82.70
30825;DHT22;17550;45.486;12.222;2023-05-31T06:51:18;24.30;83.20
30825;DHT22;17550;45.486;12.222;2023-05-31T06:53:46;24.20;83.00
30825;DHT22;17550;45.486;12.222;2023-05-31T06:56:14;24.10;83.70
30825;DHT22;17550;45.486;12.222;2023-05-31T06:58:39;24.10;84.00
30825;DHT22;17550;45.486;12.222;2023-05-31T07:01:06;24.00;84.30
30825;DHT22;17550;45.486;12.222;2023-05-31T07:03:32;24.10;84.50
30825;DHT22;17550;45.486;12.222;2023-05-31T07:05:58;24.10;84.20
30825;DHT22;17550;45.486;12.222;2023-05-31T07:08:23;24.20;85.40
30825;DHT22;17550;45.486;12.222;2023-05-31T07:10:49;24.20;84.90
30825;DHT22;17550;45.486;12.222;2023-05-31T07:13:15;24.10;84.20
30825;DHT22;17550;45.486;12.222;2023-05-31T07:15:40;23.90;84.90
30825;DHT22;17550;45.486;12.222;2023-05-31T07:18:06;24.00;86.20
30825;DHT22;17550;45.486;12.222;2023-05-31T07:20:32;24.00;86.00
30825;DHT22;17550;45.486;12.222;2023-05-31T07:22:58;24.00;86.60
30825;DHT22;17550;45.486;12.222;2023-05-31T07:25:23;24.10;87.10
30825;DHT22;17550;45.486;12.222;2023-05-31T07:27:50;24.00;84.70
30825;DHT22;17550;45.486;12.222;2023-05-31T07:30:15;23.80;85.60
30825;DHT22;17550;45.486;12.222;2023-05-31T07:32:41;23.80;86.50
30825;DHT22;17550;45.486;12.222;2023-05-31T07:35:10;23.60;86.50
30825;DHT22;17550;45.486;12.222;2023-05-31T07:37:35;23.60;88.30
30825;DHT22;17550;45.486;12.222;2023-05-31T07:40:01;23.60;87.70
30825;DHT22;17550;45.486;12.222;2023-05-31T07:42:27;23.50;87.10
30825;DHT22;17550;45.486;12.222;2023-05-31T07:44:54;23.50;87.40
30825;DHT22;17550;45.486;12.222;2023-05-31T07:47:19;23.60;86.90
30825;DHT22;17550;45.486;12.222;2023-05-31T07:49:46;23.70;88.00
30825;DHT22;17550;45.486;12.222;2023-05-31T07:52:11;23.70;87.20
30825;DHT22;17550;45.486;12.222;2023-05-31T07:54:37;23.80;87.20
30825;DHT22;17550;45.486;12.222;2023-05-31T07:57:03;23.80;87.30
30825;DHT22;17550;45.486;12.222;2023-05-31T07:59:29;24.00;87.30
30825;DHT22;17550;45.486;12.222;2023-05-31T08:01:55;24.10;83.90
30825;DHT22;17550;45.486;12.222;2023-05-31T08:04:21;24.10;84.10
30825;DHT22;17550;45.486;12.222;2023-05-31T08:06:46;24.00;83.60
30825;DHT22;17550;45.486;12.222;2023-05-31T08:09:12;24.00;83.50
30825;DHT22;17550;45.486;12.222;2023-05-31T08:11:38;24.00;84.10
30825;DHT22;17550;45.486;12.222;2023-05-31T08:14:04;24.00;84.10
30825;DHT22;17550;45.486;12.222;2023-05-31T08:16:32;24.10;84.20
30825;DHT22;17550;45.486;12.222;2023-05-31T08:18:58;24.20;85.00
30825;DHT22;17550;45.486;12.222;2023-05-31T08:21:24;24.40;82.50
30825;DHT22;17550;45.486;12.222;2023-05-31T08:23:49;24.40;78.00
30825;DHT22;17550;45.486;12.222;2023-05-31T08:26:15;24.30;79.80
30825;DHT22;17550;45.486;12.222;2023-05-31T08:28:41;24.30;80.60
30825;DHT22;17550;45.486;12.222;2023-05-31T08:31:07;24.40;81.00
30825;DHT22;17550;45.486;12.222;2023-05-31T08:33:33;24.50;80.60
30825;DHT22;17550;45.486;12.222;2023-05-31T08:35:59;24.60;78.90
30825;DHT22;17550;45.486;12.222;2023-05-31T08:38:28;24.70;79.70
30825;DHT22;17550;45.486;12.222;2023-05-31T08:41:02;24.70;77.70
30825;DHT22;17550;45.486;12.222;2023-05-31T08:43:28;24.50;76.70
30825;DHT22;17550;45.486;12.222;2023-05-31T08:45:54;24.30;77.80
30825;DHT22;17550;45.486;12.222;2023-05-31T08:48:49;24.30;77.40
30825;DHT22;17550;45.486;12.222;2023-05-31T08:51:13;24.40;77.20
30825;DHT22;17550;45.486;12.222;2023-05-31T08:53:41;24.60;77.60
30825;DHT22;17550;45.486;12.222;2023-05-31T08:56:07;24.70;75.90
30825;DHT22;17550;45.486;12.222;2023-05-31T08:58:34;24.90;77.80
30825;DHT22;17550;45.486;12.222;2023-05-31T09:01:02;25.00;78.10
30825;DHT22;17550;45.486;12.222;2023-05-31T09:03:28;25.10;76.10
30825;DHT22;17550;45.486;12.222;2023-05-31T09:05:54;24.90;78.10
30825;DHT22;17550;45.486;12.222;2023-05-31T09:08:23;24.90;77.90
30825;DHT22;17550;45.486;12.222;2023-05-31T09:10:50;24.80;75.90
30825;DHT22;17550;45.486;12.222;2023-05-31T09:13:16;24.80;77.00
30825;DHT22;17550;45.486;12.222;2023-05-31T09:15:43;25.00;77.30
30825;DHT22;17550;45.486;12.222;2023-05-31T09:18:14;25.00;76.80
30825;DHT22;17550;45.486;12.222;2023-05-31T09:20:41;25.00;77.50
30825;DHT22;17550;45.486;12.222;2023-05-31T09:23:08;25.00;78.10
30825;DHT22;17550;45.486;12.222;2023-05-31T09:25:51;24.90;77.10
30825;DHT22;17550;45.486;12.222;2023-05-31T09:28:18;25.00;76.90
30825;DHT22;17550;45.486;12.222;2023-05-31T09:30:44;25.10;77.10
30825;DHT22;17550;45.486;12.222;2023-05-31T09:33:10;25.10;76.70
30825;DHT22;17550;45.486;12.222;2023-05-31T09:35:36;25.30;78.20
30825;DHT22;17550;45.486;12.222;2023-05-31T09:38:06;25.20;76.80
30825;DHT22;17550;45.486;12.222;2023-05-31T09:40:33;25.10;76.60
30825;DHT22;17550;45.486;12.222;2023-05-31T09:42:59;25.10;76.40
30825;DHT22;17550;45.486;12.222;2023-05-31T09:45:25;25.10;76.70
30825;DHT22;17550;45.486;12.222;2023-05-31T09:47:51;25.10;75.80
30825;DHT22;17550;45.486;12.222;2023-05-31T09:50:19;25.10;73.50
30825;DHT22;17550;45.486;12.222;2023-05-31T09:52:46;25.20;74.70
30825;DHT22;17550;45.486;12.222;2023-05-31T09:55:14;25.20;74.00
30825;DHT22;17550;45.486;12.222;2023-05-31T09:57:41;25.40;74.20
30825;DHT22;17550;45.486;12.222;2023-05-31T10:00:08;25.70;74.00
30825;DHT22;17550;45.486;12.222;2023-05-31T10:02:42;25.70;71.90
30825;DHT22;17550;45.486;12.222;2023-05-31T10:05:10;25.50;73.30
30825;DHT22;17550;45.486;12.222;2023-05-31T10:07:38;25.60;73.20
30825;DHT22;17550;45.486;12.222;2023-05-31T10:10:05;25.70;74.60
30825;DHT22;17550;45.486;12.222;2023-05-31T10:12:37;25.60;71.10
30825;DHT22;17550;45.486;12.222;2023-05-31T10:15:06;25.40;70.90
30825;DHT22;17550;45.486;12.222;2023-05-31T10:17:40;25.30;72.50
30825;DHT22;17550;45.486;12.222;2023-05-31T10:20:08;25.40;73.50
30825;DHT22;17550;45.486;12.222;2023-05-31T10:22:39;25.50;72.40
30825;DHT22;17550;45.486;12.222;2023-05-31T10:25:10;25.70;72.20
30825;DHT22;17550;45.486;12.222;2023-05-31T10:27:37;25.80;72.70
30825;DHT22;17550;45.486;12.222;2023-05-31T10:30:04;25.80;71.20
30825;DHT22;17550;45.486;12.222;2023-05-31T10:32:43;25.90;71.80
30825;DHT22;17550;45.486;12.222;2023-05-31T10:35:11;25.90;71.10
30825;DHT22;17550;45.486;12.222;2023-05-31T10:37:40;25.80;68.80
30825;DHT22;17550;45.486;12.222;2023-05-31T10:40:17;25.70;69.10
30825;DHT22;17550;45.486;12.222;2023-05-31T10:42:47;25.50;67.80
30825;DHT22;17550;45.486;12.222;2023-05-31T10:45:27;25.60;68.90
30825;DHT22;17550;45.486;12.222;2023-05-31T10:50:57;25.70;69.70
30825;DHT22;17550;45.486;12.222;2023-05-31T10:53:29;25.70;71.20
30825;DHT22;17550;45.486;12.222;2023-05-31T10:56:02;25.80;73.20
30825;DHT22;17550;45.486;12.222;2023-05-31T10:58:35;25.90;72.80
30825;DHT22;17550;45.486;12.222;2023-05-31T11:01:06;25.90;72.40
30825;DHT22;17550;45.486;12.222;2023-05-31T11:03:36;26.10;72.40
30825;DHT22;17550;45.486;12.222;2023-05-31T11:06:08;26.00;72.80
30825;DHT22;17550;45.486;12.222;2023-05-31T11:08:34;26.10;71.70
30825;DHT22;17550;45.486;12.222;2023-05-31T11:13:59;26.00;70.90
30825;DHT22;17550;45.486;12.222;2023-05-31T11:16:26;25.80;71.10
30825;DHT22;17550;45.486;12.222;2023-05-31T11:19:02;25.80;74.10
30825;DHT22;17550;45.486;12.222;2023-05-31T11:27:01;26.90;72.70
30825;DHT22;17550;45.486;12.222;2023-05-31T11:35:14;26.40;73.20
30825;DHT22;17550;45.486;12.222;2023-05-31T11:37:42;26.50;74.00
30825;DHT22;17550;45.486;12.222;2023-05-31T11:40:09;26.60;73.00
30825;DHT22;17550;45.486;12.222;2023-05-31T11:42:37;26.70;72.40
30825;DHT22;17550;45.486;12.222;2023-05-31T11:45:05;26.70;72.10
30825;DHT22;17550;45.486;12.222;2023-05-31T11:50:11;27.00;71.40
30825;DHT22;17550;45.486;12.222;2023-05-31T11:52:44;27.00;71.60
30825;DHT22;17550;45.486;12.222;2023-05-31T11:55:10;27.10;72.40
30825;DHT22;17550;45.486;12.222;2023-05-31T11:57:47;27.20;72.90
30825;DHT22;17550;45.486;12.222;2023-05-31T12:00:20;27.40;71.90
30825;DHT22;17550;45.486;12.222;2023-05-31T12:02:53;27.30;71.00
30825;DHT22;17550;45.486;12.222;2023-05-31T12:05:23;26.90;72.10
30825;DHT22;17550;45.486;12.222;2023-05-31T12:07:53;26.90;72.40
30825;DHT22;17550;45.486;12.222;2023-05-31T12:10:19;27.00;72.20
30825;DHT22;17550;45.486;12.222;2023-05-31T12:12:46;26.90;72.70
30825;DHT22;17550;45.486;12.222;2023-05-31T12:15:12;26.80;72.80
30825;DHT22;17550;45.486;12.222;2023-05-31T12:17:39;26.90;73.60
30825;DHT22;17550;45.486;12.222;2023-05-31T12:20:05;27.20;74.20
30825;DHT22;17550;45.486;12.222;2023-05-31T12:22:31;27.20;73.80
30825;DHT22;17550;45.486;12.222;2023-05-31T12:24:57;27.20;74.80
30825;DHT22;17550;45.486;12.222;2023-05-31T12:27:26;27.00;73.10
30825;DHT22;17550;45.486;12.222;2023-05-31T12:30:00;27.10;75.00
30825;DHT22;17550;45.486;12.222;2023-05-31T12:32:26;27.40;74.90
30825;DHT22;17550;45.486;12.222;2023-05-31T12:35:05;27.60;74.80
30825;DHT22;17550;45.486;12.222;2023-05-31T12:37:38;27.50;73.90
30825;DHT22;17550;45.486;12.222;2023-05-31T12:40:15;27.50;74.90
30825;DHT22;17550;45.486;12.222;2023-05-31T12:42:43;27.80;74.50
30825;DHT22;17550;45.486;12.222;2023-05-31T12:45:09;28.10;74.00
30825;DHT22;17550;45.486;12.222;2023-05-31T12:47:36;28.40;73.40
30825;DHT22;17550;45.486;12.222;2023-05-31T12:50:07;28.60;72.40
30825;DHT22;17550;45.486;12.222;2023-05-31T12:52:37;28.70;73.40
30825;DHT22;17550;45.486;12.222;2023-05-31T12:55:05;28.50;73.60
30825;DHT22;17550;45.486;12.222;2023-05-31T12:57:32;28.60;73.00
30825;DHT22;17550;45.486;12.222;2023-05-31T13:00:05;28.70;73.40
30825;DHT22;17550;45.486;12.222;2023-05-31T13:02:34;27.80;73.50
30825;DHT22;17550;45.486;12.222;2023-05-31T13:05:00;27.40;74.10
30825;DHT22;17550;45.486;12.222;2023-05-31T13:07:26;27.20;74.90
30825;DHT22;17550;45.486;12.222;2023-05-31T13:09:51;27.00;74.30
30825;DHT22;17550;45.486;12.222;2023-05-31T13:12:17;26.90;76.20
30825;DHT22;17550;45.486;12.222;2023-05-31T13:14:44;27.10;75.80
30825;DHT22;17550;45.486;12.222;2023-05-31T13:17:10;27.10;76.40
30825;DHT22;17550;45.486;12.222;2023-05-31T13:19:36;26.90;75.30
30825;DHT22;17550;45.486;12.222;2023-05-31T13:22:02;27.10;75.60
30825;DHT22;17550;45.486;12.222;2023-05-31T13:24:29;27.20;74.60
30825;DHT22;17550;45.486;12.222;2023-05-31T13:26:55;27.30;74.70
30825;DHT22;17550;45.486;12.222;2023-05-31T13:29:20;27.20;76.60
30825;DHT22;17550;45.486;12.222;2023-05-31T13:31:50;27.30;75.80
30825;DHT22;17550;45.486;12.222;2023-05-31T13:34:17;27.30;76.50
30825;DHT22;17550;45.486;12.222;2023-05-31T13:36:43;27.60;76.60
30825;DHT22;17550;45.486;12.222;2023-05-31T13:39:09;27.60;76.10
30825;DHT22;17550;45.486;12.222;2023-05-31T13:41:39;27.70;75.70
30825;DHT22;17550;45.486;12.222;2023-05-31T13:44:04;27.60;75.80
30825;DHT22;17550;45.486;12.222;2023-05-31T13:46:30;27.80;76.20
30825;DHT22;17550;45.486;12.222;2023-05-31T13:48:56;27.90;76.40
30825;DHT22;17550;45.486;12.222;2023-05-31T13:51:21;27.80;76.50
30825;DHT22;17550;45.486;12.222;2023-05-31T13:53:47;27.80;76.90
30825;DHT22;17550;45.486;12.222;2023-05-31T13:56:13;27.40;76.90
30825;DHT22;17550;45.486;12.222;2023-05-31T13:58:39;27.30;77.90
30825;DHT22;17550;45.486;12.222;2023-05-31T14:01:05;27.30;77.30
30825;DHT22;17550;45.486;12.222;2023-05-31T14:03:36;27.10;78.00
30825;DHT22;17550;45.486;12.222;2023-05-31T14:06:02;27.10;78.00
30825;DHT22;17550;45.486;12.222;2023-05-31T14:08:28;26.80;78.40
30825;DHT22;17550;45.486;12.222;2023-05-31T14:10:54;26.60;78.90
30825;DHT22;17550;45.486;12.222;2023-05-31T14:13:19;26.50;78.70
30825;DHT22;17550;45.486;12.222;2023-05-31T14:15:45;26.40;78.30
30825;DHT22;17550;45.486;12.222;2023-05-31T14:18:11;26.40;78.30
30825;DHT22;17550;45.486;12.222;2023-05-31T14:20:37;26.40;78.80
30825;DHT22;17550;45.486;12.222;2023-05-31T14:23:03;26.30;80.50
30825;DHT22;17550;45.486;12.222;2023-05-31T14:25:29;26.20;80.30
30825;DHT22;17550;45.486;12.222;2023-05-31T14:27:56;26.20;80.20
30825;DHT22;17550;45.486;12.222;2023-05-31T14:30:21;26.20;79.70
30825;DHT22;17550;45.486;12.222;2023-05-31T14:32:47;26.10;80.70
30825;DHT22;17550;45.486;12.222;2023-05-31T14:35:13;26.00;79.50
30825;DHT22;17550;45.486;12.222;2023-05-31T14:37:39;25.90;79.70
30825;DHT22;17550;45.486;12.222;2023-05-31T14:40:05;25.80;80.90
30825;DHT22;17550;45.486;12.222;2023-05-31T14:42:31;25.70;79.80
30825;DHT22;17550;45.486;12.222;2023-05-31T14:44:57;25.50;80.20
30825;DHT22;17550;45.486;12.222;2023-05-31T14:47:23;25.40;79.60
30825;DHT22;17550;45.486;12.222;2023-05-31T14:49:48;25.40;80.60
30825;DHT22;17550;45.486;12.222;2023-05-31T14:52:14;25.50;79.50
30825;DHT22;17550;45.486;12.222;2023-05-31T14:54:40;25.50;79.80
30825;DHT22;17550;45.486;12.222;2023-05-31T14:57:06;25.40;79.50
30825;DHT22;17550;45.486;12.222;2023-05-31T14:59:31;25.30;79.60
30825;DHT22;17550;45.486;12.222;2023-05-31T15:01:57;25.30;80.90
30825;DHT22;17550;45.486;12.222;2023-05-31T15:04:25;25.50;80.60
30825;DHT22;17550;45.486;12.222;2023-05-31T15:06:51;25.60;79.10
30825;DHT22;17550;45.486;12.222;2023-05-31T15:09:17;25.50;78.80
30825;DHT22;17550;45.486;12.222;2023-05-31T15:11:43;25.50;79.40
30825;DHT22;17550;45.486;12.222;2023-05-31T15:14:09;25.40;79.10
30825;DHT22;17550;45.486;12.222;2023-05-31T15:16:36;25.40;79.70
30825;DHT22;17550;45.486;12.222;2023-05-31T15:19:01;25.30;78.90
30825;DHT22;17550;45.486;12.222;2023-05-31T15:21:27;25.30;79.40
30825;DHT22;17550;45.486;12.222;2023-05-31T15:23:53;25.20;80.00
30825;DHT22;17550;45.486;12.222;2023-05-31T15:26:19;25.10;78.80
30825;DHT22;17550;45.486;12.222;2023-05-31T15:28:47;25.20;78.90
30825;DHT22;17550;45.486;12.222;2023-05-31T15:31:13;25.20;79.70
30825;DHT22;17550;45.486;12.222;2023-05-31T15:33:39;25.20;79.60